Time;durP1;ratioP1;P1;durP2;ratioP2;P2;SDS_P1;SDS_P2;PMS_P1;PMS_P2;Temp;Humidity;BMP_temperature;BMP_pressure;BME280_temperature;BME280_humidity;BME280_pressure;Samples;Min_cycle;Max_cycle;Signal;HPM_P1;HPM_P2
2022/07/30 00:02:23;;;;;;;7.35;2.53;;;14.70;99.90;;;;;;4841847;29;20137;-78
2022/07/30 00:04:49;;;;;;;5.13;2.65;;;14.70;99.90;;;;;;4826794;29;20085;-78
2022/07/30 00:07:15;;;;;;;4.00;2.45;;;14.70;99.90;;;;;;4826419;29;20498;-78
2022/07/30 00:09:41;;;;;;;4.88;2.00;;;14.60;99.90;;;;;;4842515;29;20092;-78
2022/07/30 00:12:07;;;;;;;4.85;3.00;;;14.60;99.90;;;;;;4841836;29;20173;-78
2022/07/30 00:14:33;;;;;;;4.85;2.60;;;14.60;99.90;;;;;;4843340;29;20049;-78
2022/07/30 00:17:00;;;;;;;6.07;3.53;;;14.60;99.90;;;;;;4827551;29;20066;-78
2022/07/30 00:19:26;;;;;;;6.70;3.17;;;14.50;99.90;;;;;;4823620;29;20402;-78
2022/07/30 00:21:53;;;;;;;5.40;2.83;;;14.50;99.90;;;;;;4838218;29;20050;-78
2022/07/30 00:24:20;;;;;;;4.55;2.97;;;14.40;99.90;;;;;;4843546;29;20125;-77
2022/07/30 00:26:45;;;;;;;5.28;2.53;;;14.40;99.90;;;;;;4841553;29;20167;-77
2022/07/30 00:29:12;;;;;;;48.63;5.30;;;14.30;99.90;;;;;;4827211;29;20042;-78
2022/07/30 00:31:38;;;;;;;16.05;3.45;;;14.30;99.90;;;;;;4841131;29;20053;-78
2022/07/30 00:34:04;;;;;;;8.68;3.25;;;14.30;99.90;;;;;;4841356;29;20042;-78
2022/07/30 00:36:30;;;;;;;8.10;3.10;;;14.30;99.90;;;;;;4841279;29;20109;-78
2022/07/30 00:38:56;;;;;;;7.78;2.97;;;14.30;99.90;;;;;;4842401;29;20058;-78
2022/07/30 00:41:22;;;;;;;5.15;2.80;;;14.20;99.90;;;;;;4833444;29;20406;-78
2022/07/30 00:43:48;;;;;;;7.63;2.90;;;14.20;99.90;;;;;;4825009;29;20508;-78
2022/07/30 00:46:14;;;;;;;5.13;2.97;;;14.10;99.90;;;;;;4831800;29;20133;-78
2022/07/30 00:48:40;;;;;;;3.97;2.85;;;14.00;99.90;;;;;;4840680;29;20057;-78
2022/07/30 00:51:06;;;;;;;6.68;3.10;;;14.00;99.90;;;;;;4840884;29;20045;-78
2022/07/30 00:53:33;;;;;;;6.50;3.67;;;14.00;99.90;;;;;;4842104;29;20439;-78
2022/07/30 00:55:58;;;;;;;3.80;3.00;;;14.00;99.90;;;;;;4841254;29;20069;-78
2022/07/30 00:58:24;;;;;;;5.03;2.90;;;13.90;99.90;;;;;;4841681;29;20058;-78
2022/07/30 01:00:50;;;;;;;7.50;2.80;;;13.90;99.90;;;;;;4841044;29;20059;-78
2022/07/30 01:03:16;;;;;;;6.75;3.03;;;13.90;99.90;;;;;;4840953;29;20493;-78
2022/07/30 01:05:41;;;;;;;4.00;2.08;;;13.90;99.90;;;;;;4856638;29;20050;-78
2022/07/30 01:08:07;;;;;;;7.63;3.85;;;13.90;99.90;;;;;;4842218;29;20046;-78
2022/07/30 01:10:33;;;;;;;9.27;4.57;;;13.90;99.90;;;;;;4840953;29;20050;-78
2022/07/30 01:13:00;;;;;;;5.15;3.13;;;13.90;99.90;;;;;;4842944;29;20054;-78
2022/07/30 01:15:27;;;;;;;6.78;3.35;;;13.80;99.90;;;;;;4840885;29;20054;-78
2022/07/30 01:17:56;;;;;;;5.40;3.55;;;13.80;99.90;;;;;;4840063;29;20133;-78
2022/07/30 01:20:31;;;;;;;6.68;3.42;;;13.80;99.90;;;;;;4841978;29;20066;-78
2022/07/30 01:23:07;;;;;;;6.65;3.90;;;13.80;99.90;;;;;;4840880;29;20089;-78
2022/07/30 01:25:55;;;;;;;10.85;4.10;;;13.80;99.90;;;;;;4830659;29;20085;-78
2022/07/30 01:28:35;;;;;;;7.78;4.05;;;13.80;99.90;;;;;;4823238;29;20401;-78
2022/07/30 01:31:03;;;;;;;8.95;3.83;;;13.80;99.90;;;;;;4822477;29;20054;-78
2022/07/30 01:33:31;;;;;;;6.25;3.35;;;13.80;99.90;;;;;;4823379;29;20099;-78
2022/07/30 01:35:58;;;;;;;4.32;3.60;;;13.70;99.90;;;;;;4854876;29;20054;-78
2022/07/30 01:38:27;;;;;;;4.47;3.58;;;13.60;99.90;;;;;;4840924;29;20056;-78
2022/07/30 01:40:54;;;;;;;6.18;3.40;;;13.60;99.90;;;;;;4842814;29;20114;-78
2022/07/30 01:43:23;;;;;;;8.63;3.00;;;13.60;99.90;;;;;;4829584;29;20054;-78
2022/07/30 01:45:51;;;;;;;7.68;3.72;;;13.50;99.90;;;;;;4824561;29;20117;-78
2022/07/30 01:48:20;;;;;;;5.57;3.90;;;13.50;99.90;;;;;;4835430;29;20387;-78
2022/07/30 01:50:49;;;;;;;7.22;3.90;;;13.40;99.90;;;;;;4840515;29;20060;-78
2022/07/30 01:53:22;;;;;;;8.98;4.47;;;13.40;99.90;;;;;;4841471;29;20407;-78
2022/07/30 01:55:49;;;;;;;6.82;3.78;;;13.40;99.90;;;;;;4842565;29;20061;-78
2022/07/30 01:58:19;;;;;;;6.22;4.47;;;13.40;99.90;;;;;;4840846;29;20498;-78
2022/07/30 02:00:47;;;;;;;4.63;4.00;;;13.40;99.90;;;;;;4844376;29;20061;-78
2022/07/30 02:03:13;;;;;;;6.38;4.00;;;13.40;99.90;;;;;;4844740;29;20113;-78
2022/07/30 02:05:41;;;;;;;4.95;3.92;;;13.40;99.90;;;;;;4845067;29;20054;-78
2022/07/30 02:08:15;;;;;;;9.38;4.85;;;13.40;99.90;;;;;;4843768;29;20058;-78
2022/07/30 02:10:52;;;;;;;5.67;3.67;;;13.40;99.90;;;;;;4845430;29;20056;-78
2022/07/30 02:13:21;;;;;;;5.03;3.38;;;13.40;99.90;;;;;;4844121;29;20046;-78
2022/07/30 02:15:49;;;;;;;4.32;3.45;;;13.30;99.90;;;;;;4845572;29;20049;-78
2022/07/30 02:18:27;;;;;;;5.65;3.67;;;13.30;99.90;;;;;;4844651;29;20085;-78
2022/07/30 02:21:02;;;;;;;5.18;3.92;;;13.30;99.90;;;;;;4844784;29;20053;-78
2022/07/30 02:23:29;;;;;;;9.73;4.90;;;13.30;99.90;;;;;;4844372;29;20512;-78
2022/07/30 02:25:58;;;;;;;6.03;4.88;;;13.30;99.90;;;;;;4843369;29;20065;-78
2022/07/30 02:28:25;;;;;;;7.03;4.55;;;13.20;99.90;;;;;;4836680;29;20034;-78
2022/07/30 02:30:53;;;;;;;6.45;3.75;;;13.20;99.90;;;;;;4825744;29;20050;-78
2022/07/30 02:33:27;;;;;;;7.75;4.50;;;13.10;99.90;;;;;;4831850;29;20405;-78
2022/07/30 02:35:54;;;;;;;6.77;4.53;;;13.00;99.90;;;;;;4845401;29;20046;-78
2022/07/30 02:38:21;;;;;;;10.68;5.07;;;12.90;99.90;;;;;;4837272;29;20064;-78
2022/07/30 02:40:49;;;;;;;6.15;5.15;;;12.90;99.90;;;;;;4826301;29;20054;-78
2022/07/30 02:43:15;;;;;;;6.85;4.60;;;12.80;99.90;;;;;;4825976;29;20072;-78
2022/07/30 02:45:45;;;;;;;7.82;5.40;;;12.80;99.90;;;;;;4825436;29;20065;-78
2022/07/30 02:48:12;;;;;;;5.63;4.50;;;12.80;99.90;;;;;;4813995;29;20041;-79
2022/07/30 02:50:39;;;;;;;5.30;3.58;;;12.80;99.90;;;;;;4843944;29;20042;-79
2022/07/30 02:53:09;;;;;;;7.47;4.65;;;12.70;99.90;;;;;;4843999;29;20077;-78
2022/07/30 02:55:37;;;;;;;8.05;4.68;;;12.70;99.90;;;;;;4843760;29;20064;-78
2022/07/30 02:58:04;;;;;;;6.28;4.57;;;12.70;99.90;;;;;;4843806;29;20050;-78
2022/07/30 03:00:32;;;;;;;16.48;5.10;;;12.70;99.90;;;;;;4843946;29;20133;-78
2022/07/30 03:02:58;;;;;;;7.45;5.38;;;12.70;99.90;;;;;;4840225;29;20114;-78
2022/07/30 03:05:25;;;;;;;12.45;6.32;;;12.80;99.90;;;;;;4825230;29;20081;-78
2022/07/30 03:07:55;;;;;;;6.95;6.00;;;12.80;99.90;;;;;;4827122;29;20045;-78
2022/07/30 03:10:21;;;;;;;9.05;6.65;;;12.90;99.90;;;;;;4844597;29;20085;-78
2022/07/30 03:12:49;;;;;;;7.22;6.25;;;12.90;99.90;;;;;;4843158;29;20053;-78
2022/07/30 03:15:15;;;;;;;10.80;6.80;;;13.00;99.90;;;;;;4842582;29;20053;-78
2022/07/30 03:17:48;;;;;;;11.68;7.65;;;13.10;99.90;;;;;;4842286;29;20050;-78
2022/07/30 03:20:18;;;;;;;6.50;5.63;;;13.10;99.90;;;;;;4843501;29;20133;-78
2022/07/30 03:22:50;;;;;;;9.38;7.10;;;13.20;99.90;;;;;;4842842;29;20555;-78
2022/07/30 03:25:23;;;;;;;11.57;7.72;;;13.20;99.90;;;;;;4829115;29;20402;-79
2022/07/30 03:27:49;;;;;;;8.13;6.47;;;13.30;99.90;;;;;;4842651;29;20092;-79
2022/07/30 03:30:15;;;;;;;10.77;6.60;;;13.20;99.90;;;;;;4842108;29;20069;-79
2022/07/30 03:32:42;;;;;;;7.85;6.53;;;13.20;99.90;;;;;;4842164;29;20045;-79
2022/07/30 03:35:10;;;;;;;6.47;5.70;;;13.20;99.90;;;;;;4844208;29;20049;-78
2022/07/30 03:37:38;;;;;;;7.13;6.40;;;13.20;99.90;;;;;;4841255;29;20046;-78
2022/07/30 03:40:06;;;;;;;6.03;5.53;;;13.20;99.90;;;;;;4843178;29;20138;-78
2022/07/30 03:42:33;;;;;;;7.25;5.80;;;13.20;99.90;;;;;;4825022;29;20086;-79
2022/07/30 03:45:05;;;;;;;9.32;6.35;;;13.20;99.90;;;;;;4823820;29;20061;-78
2022/07/30 03:47:33;;;;;;;13.57;7.03;;;13.20;99.90;;;;;;4841808;29;20046;-79
2022/07/30 03:49:59;;;;;;;16.73;7.03;;;13.20;99.90;;;;;;4843280;29;20050;-78
2022/07/30 03:52:26;;;;;;;9.82;7.45;;;13.10;99.90;;;;;;4842858;29;20057;-79
2022/07/30 03:54:52;;;;;;;27.45;8.55;;;13.10;99.90;;;;;;4843994;29;20052;-79
2022/07/30 03:57:18;;;;;;;27.13;7.78;;;13.10;99.90;;;;;;4840627;29;20890;-79
2022/07/30 03:59:45;;;;;;;19.90;7.90;;;13.00;99.90;;;;;;4843902;29;20075;-79
2022/07/30 04:02:11;;;;;;;24.80;7.65;;;13.00;99.90;;;;;;4841357;29;20054;-79
2022/07/30 04:04:41;;;;;;;40.53;8.20;;;13.00;99.90;;;;;;4841859;29;20089;-79
2022/07/30 04:07:07;;;;;;;25.23;10.07;;;13.00;99.90;;;;;;4857160;29;20446;-79
2022/07/30 04:09:34;;;;;;;7.60;6.80;;;13.00;99.90;;;;;;4843702;29;20061;-79
2022/07/30 04:11:59;;;;;;;10.60;6.72;;;12.90;99.90;;;;;;4829248;29;20137;-79
2022/07/30 04:14:25;;;;;;;8.13;6.72;;;13.00;99.90;;;;;;4824333;29;20086;-79
2022/07/30 04:17:10;;;;;;;8.52;7.00;;;12.90;99.90;;;;;;4826415;29;20115;-79
2022/07/30 04:19:58;;;;;;;7.68;6.85;;;12.90;99.90;;;;;;4824746;29;20046;-79
2022/07/30 04:22:29;;;;;;;7.22;6.53;;;12.90;99.90;;;;;;4842644;29;20060;-79
2022/07/30 04:24:55;;;;;;;6.50;5.93;;;12.90;99.90;;;;;;4841520;29;20052;-79
2022/07/30 04:27:24;;;;;;;6.20;5.63;;;12.80;99.90;;;;;;4842186;29;20132;-79
2022/07/30 04:29:51;;;;;;;7.05;6.35;;;12.90;99.90;;;;;;4842307;29;20077;-79
2022/07/30 04:32:18;;;;;;;6.40;5.80;;;12.80;99.90;;;;;;4842110;29;20053;-79
2022/07/30 04:34:52;;;;;;;6.28;5.55;;;12.80;99.90;;;;;;4843496;29;20050;-79
2022/07/30 04:37:21;;;;;;;6.23;5.63;;;12.90;99.90;;;;;;4842723;29;20110;-79
2022/07/30 04:39:53;;;;;;;7.40;5.85;;;12.90;99.90;;;;;;4842332;29;20321;-79
2022/07/30 04:42:20;;;;;;;5.35;4.93;;;12.90;99.90;;;;;;4838948;29;20058;-78
2022/07/30 04:44:47;;;;;;;5.68;5.18;;;13.00;99.90;;;;;;4841752;29;20057;-79
2022/07/30 04:47:13;;;;;;;10.15;6.88;;;13.00;99.90;;;;;;4840684;29;20110;-79
2022/07/30 04:49:40;;;;;;;6.47;5.95;;;13.10;99.90;;;;;;4843370;29;20049;-79
2022/07/30 04:52:08;;;;;;;7.78;7.07;;;13.10;99.90;;;;;;4839455;29;20097;-79
2022/07/30 04:54:42;;;;;;;8.15;6.78;;;13.20;99.90;;;;;;4842502;29;20494;-79
2022/07/30 04:57:11;;;;;;;9.70;6.78;;;13.20;99.90;;;;;;4840719;29;20066;-79
2022/07/30 04:59:37;;;;;;;7.30;6.68;;;13.20;99.90;;;;;;4841858;29;20102;-79
2022/07/30 05:02:06;;;;;;;8.18;6.57;;;13.30;99.90;;;;;;4839747;29;20060;-79
2022/07/30 05:04:34;;;;;;;14.98;7.63;;;13.40;99.90;;;;;;4843307;29;20053;-79
2022/07/30 05:07:01;;;;;;;10.48;8.05;;;13.40;99.90;;;;;;4815827;29;20111;-79
2022/07/30 05:09:28;;;;;;;14.60;7.07;;;13.40;99.90;;;;;;4823228;29;20424;-79
2022/07/30 05:11:55;;;;;;;10.70;7.82;;;13.50;99.90;;;;;;4831964;29;20106;-79
2022/07/30 05:14:22;;;;;;;13.95;7.53;;;13.50;99.90;;;;;;4824021;29;20053;-79
2022/07/30 05:16:49;;;;;;;7.80;7.00;;;13.60;99.90;;;;;;4840668;29;20058;-79
2022/07/30 05:19:17;;;;;;;15.82;8.10;;;13.70;99.90;;;;;;4843050;29;20200;-79
2022/07/30 05:21:43;;;;;;;21.48;9.48;;;13.80;99.90;;;;;;4827656;29;20608;-79
2022/07/30 05:24:09;;;;;;;9.77;7.75;;;13.90;99.90;;;;;;4827983;29;20046;-79
2022/07/30 05:26:35;;;;;;;15.07;7.90;;;14.00;99.90;;;;;;4841676;29;20145;-79
2022/07/30 05:29:01;;;;;;;10.15;8.00;;;14.10;99.90;;;;;;4840978;29;20049;-79
2022/07/30 05:31:26;;;;;;;7.85;7.05;;;14.20;99.90;;;;;;4841530;29;20054;-78
2022/07/30 05:33:52;;;;;;;11.27;9.10;;;14.30;99.90;;;;;;4840943;29;20086;-78
2022/07/30 05:36:19;;;;;;;9.95;7.63;;;14.40;99.90;;;;;;4844328;29;20172;-79
2022/07/30 05:38:46;;;;;;;9.93;7.38;;;14.50;99.90;;;;;;4845604;29;20114;-79
2022/07/30 05:41:11;;;;;;;15.35;7.80;;;14.60;99.90;;;;;;4827879;29;20061;-78
2022/07/30 05:43:37;;;;;;;8.15;6.93;;;14.70;99.90;;;;;;4827084;29;20046;-79
2022/07/30 05:46:03;;;;;;;8.02;7.22;;;14.70;99.90;;;;;;4843826;29;20510;-79
2022/07/30 05:48:30;;;;;;;10.60;7.60;;;14.80;99.90;;;;;;4844827;29;20137;-79
2022/07/30 05:50:56;;;;;;;18.35;8.07;;;14.90;99.90;;;;;;4844288;29;20414;-79
2022/07/30 05:53:22;;;;;;;10.63;7.63;;;15.00;99.90;;;;;;4829574;29;20050;-78
2022/07/30 05:55:47;;;;;;;22.92;9.45;;;15.10;99.90;;;;;;4843508;29;20510;-79
2022/07/30 05:58:13;;;;;;;18.30;8.70;;;15.20;99.90;;;;;;4846634;29;20057;-79
2022/07/30 06:00:39;;;;;;;17.95;8.55;;;15.30;99.90;;;;;;4844269;29;20046;-79
2022/07/30 06:03:05;;;;;;;16.45;9.32;;;15.30;99.90;;;;;;4843757;29;20054;-79
2022/07/30 06:05:31;;;;;;;24.42;8.73;;;15.40;99.90;;;;;;4845191;29;20090;-78
2022/07/30 06:07:57;;;;;;;16.25;7.97;;;15.50;99.90;;;;;;4844972;29;20459;-79
2022/07/30 06:10:23;;;;;;;17.35;9.00;;;15.60;99.90;;;;;;4845594;29;20046;-79
2022/07/30 06:12:49;;;;;;;13.07;9.50;;;15.70;99.90;;;;;;4840865;29;20061;-79
2022/07/30 06:15:14;;;;;;;17.45;11.23;;;15.80;99.90;;;;;;4844858;29;20049;-79
2022/07/30 06:17:44;;;;;;;18.92;9.35;;;16.00;99.90;;;;;;4827490;29;20081;-79
2022/07/30 06:20:11;;;;;;;16.08;10.10;;;16.00;99.90;;;;;;4845666;29;20046;-79
2022/07/30 06:22:37;;;;;;;13.43;10.35;;;16.20;99.90;;;;;;4843173;29;20049;-80
2022/07/30 06:25:04;;;;;;;21.55;9.95;;;16.30;99.90;;;;;;4826945;29;20115;-79
2022/07/30 06:27:32;;;;;;;14.75;9.25;;;16.40;99.90;;;;;;4825880;29;20551;-79
2022/07/30 06:30:03;;;;;;;18.33;8.70;;;16.40;99.90;;;;;;4826449;29;20054;-79
2022/07/30 06:32:29;;;;;;;14.55;8.98;;;16.60;99.90;;;;;;4843144;29;20121;-79
2022/07/30 06:34:54;;;;;;;15.95;9.27;;;16.70;99.90;;;;;;4844279;29;20046;-79
2022/07/30 06:37:20;;;;;;;14.20;7.78;;;16.80;99.90;;;;;;4841664;29;20482;-78
2022/07/30 06:39:46;;;;;;;17.52;8.63;;;16.90;99.90;;;;;;4852023;29;20120;-78
2022/07/30 06:42:12;;;;;;;15.98;7.85;;;16.90;99.90;;;;;;4844047;29;20542;-78
2022/07/30 06:44:38;;;;;;;13.45;7.40;;;17.00;99.90;;;;;;4844623;29;20042;-78
2022/07/30 06:47:04;;;;;;;13.25;7.07;;;17.10;99.90;;;;;;4840860;29;20183;-78
2022/07/30 06:49:34;;;;;;;15.15;8.13;;;17.30;99.90;;;;;;4843798;29;20129;-78
2022/07/30 06:52:00;;;;;;;16.58;7.93;;;17.40;99.90;;;;;;4843625;29;20045;-78
2022/07/30 06:54:26;;;;;;;11.63;7.28;;;17.60;99.90;;;;;;4827660;29;20076;-78
2022/07/30 06:56:51;;;;;;;18.90;8.45;;;17.70;99.90;;;;;;4840794;29;20509;-80
2022/07/30 06:59:17;;;;;;;12.98;8.45;;;17.90;99.90;;;;;;4827738;29;20190;-79
2022/07/30 07:01:43;;;;;;;12.00;7.15;;;18.00;99.90;;;;;;4823650;29;20517;-78
2022/07/30 07:04:09;;;;;;;15.77;7.20;;;18.10;99.90;;;;;;4826452;29;20092;-79
2022/07/30 07:06:35;;;;;;;16.92;8.40;;;18.20;99.90;;;;;;4836977;29;20085;-79
2022/07/30 07:09:01;;;;;;;13.68;6.50;;;18.30;99.90;;;;;;4843932;29;20130;-79
2022/07/30 07:11:26;;;;;;;15.25;7.38;;;18.40;99.90;;;;;;4831791;29;20050;-78
2022/07/30 07:13:53;;;;;;;11.52;5.65;;;18.40;99.90;;;;;;4826245;29;20042;-78
2022/07/30 07:16:20;;;;;;;11.27;5.78;;;18.50;99.90;;;;;;4834757;29;20060;-78
2022/07/30 07:18:47;;;;;;;13.27;6.60;;;18.60;99.90;;;;;;4843251;29;20060;-79
2022/07/30 07:21:14;;;;;;;14.10;5.47;;;18.60;99.90;;;;;;4841437;29;20058;-79
2022/07/30 07:23:40;;;;;;;11.05;5.72;;;18.70;99.90;;;;;;4844360;29;20073;-79
2022/07/30 07:26:06;;;;;;;13.48;6.07;;;18.80;99.90;;;;;;4840345;29;20498;-79
2022/07/30 07:28:31;;;;;;;14.93;5.90;;;18.90;99.90;;;;;;4842269;29;20056;-81
2022/07/30 07:30:57;;;;;;;16.90;4.90;;;18.90;99.90;;;;;;4841630;29;20046;-80
2022/07/30 07:33:23;;;;;;;15.45;6.22;;;18.90;99.90;;;;;;4842743;29;20136;-80
2022/07/30 07:35:49;;;;;;;13.70;4.88;;;18.90;99.90;;;;;;4837692;29;20050;-81
2022/07/30 07:38:15;;;;;;;13.88;4.68;;;18.90;99.90;;;;;;4824681;29;20133;-79
2022/07/30 07:40:40;;;;;;;11.15;4.93;;;19.00;99.90;;;;;;4828079;29;20050;-79
2022/07/30 07:43:06;;;;;;;10.48;5.43;;;19.00;99.90;;;;;;4829374;29;20046;-79
2022/07/30 07:45:33;;;;;;;13.15;5.28;;;19.00;99.90;;;;;;4839233;29;20469;-79
2022/07/30 07:47:58;;;;;;;11.68;4.95;;;19.00;99.90;;;;;;4843848;29;20073;-80
2022/07/30 07:50:24;;;;;;;11.48;4.18;;;19.10;99.90;;;;;;4841611;29;20570;-78
2022/07/30 07:52:50;;;;;;;13.40;4.25;;;19.10;99.90;;;;;;4827322;29;20050;-79
2022/07/30 07:55:16;;;;;;;9.50;4.05;;;19.20;99.90;;;;;;4843311;29;21608;-80
2022/07/30 07:57:44;;;;;;;17.60;4.00;;;19.30;99.90;;;;;;4841670;29;20486;-80
2022/07/30 08:00:13;;;;;;;12.90;3.50;;;19.30;99.90;;;;;;4841496;29;20050;-79
2022/07/30 08:02:39;;;;;;;12.90;3.35;;;19.30;99.90;;;;;;4843706;29;20159;-80
2022/07/30 08:05:07;;;;;;;9.00;3.60;;;19.30;99.90;;;;;;4839351;29;20406;-80
2022/07/30 08:07:33;;;;;;;11.23;3.85;;;19.40;99.90;;;;;;4840921;29;20050;-80
2022/07/30 08:09:59;;;;;;;9.10;3.50;;;19.50;99.90;;;;;;4840895;29;20057;-80
2022/07/30 08:12:26;;;;;;;6.40;2.83;;;19.60;99.90;;;;;;4842627;29;20052;-81
2022/07/30 08:14:52;;;;;;;8.48;3.15;;;19.70;99.90;;;;;;4841348;29;20081;-80
2022/07/30 08:17:18;;;;;;;11.05;3.17;;;19.70;99.90;;;;;;4841160;29;20132;-79
2022/07/30 08:19:44;;;;;;;4.85;2.75;;;19.70;99.90;;;;;;4842394;29;20557;-81
2022/07/30 08:22:10;;;;;;;7.38;3.03;;;19.80;99.90;;;;;;4843468;29;20038;-80
2022/07/30 08:24:36;;;;;;;10.75;3.15;;;19.80;99.90;;;;;;4841550;29;20076;-81
2022/07/30 08:27:02;;;;;;;7.53;3.38;;;20.00;99.90;;;;;;4843086;29;20486;-81
2022/07/30 08:29:30;;;;;;;10.55;3.75;;;20.00;99.90;;;;;;4839005;29;20062;-80
2022/07/30 08:31:56;;;;;;;7.60;3.10;;;20.00;99.90;;;;;;4840165;29;20058;-81
2022/07/30 08:34:22;;;;;;;8.48;3.25;;;20.10;99.90;;;;;;4843231;29;20052;-80
2022/07/30 08:36:48;;;;;;;10.88;2.70;;;20.10;99.90;;;;;;4841790;29;20568;-81
2022/07/30 08:39:14;;;;;;;10.20;3.15;;;20.20;99.90;;;;;;4839682;29;20041;-82
2022/07/30 08:41:41;;;;;;;8.75;3.72;;;20.30;99.90;;;;;;4838899;29;20391;-79
2022/07/30 08:44:11;;;;;;;14.30;3.70;;;20.30;99.90;;;;;;4841839;29;20439;-80
2022/07/30 08:46:41;;;;;;;10.52;2.78;;;20.20;99.90;;;;;;4838663;29;20053;-80
2022/07/30 08:49:08;;;;;;;10.05;2.92;;;20.20;99.90;;;;;;4840897;29;20046;-81
2022/07/30 08:51:35;;;;;;;8.65;2.40;;;20.20;99.90;;;;;;4842965;29;20065;-82
2022/07/30 08:54:03;;;;;;;5.57;2.50;;;20.20;99.90;;;;;;4840094;29;21309;-80
2022/07/30 08:56:29;;;;;;;9.10;2.83;;;20.30;99.90;;;;;;4842617;29;20069;-81
2022/07/30 08:58:55;;;;;;;8.48;2.38;;;20.30;99.90;;;;;;4840473;29;20502;-81
2022/07/30 09:01:21;;;;;;;10.20;2.38;;;20.30;99.90;;;;;;4840977;29;20058;-81
2022/07/30 09:03:47;;;;;;;6.32;2.25;;;20.30;99.90;;;;;;4828314;29;20050;-81
2022/07/30 09:06:14;;;;;;;9.20;2.72;;;20.30;99.90;;;;;;4823489;29;20411;-80
2022/07/30 09:08:40;;;;;;;7.47;2.55;;;20.30;99.90;;;;;;4840223;29;20081;-82
2022/07/30 09:11:06;;;;;;;13.73;2.83;;;20.30;99.90;;;;;;4843981;29;20406;-81
2022/07/30 09:13:35;;;;;;;9.63;2.55;;;20.30;99.90;;;;;;4835486;29;20054;-82
2022/07/30 09:16:01;;;;;;;8.10;3.05;;;20.30;99.90;;;;;;4826780;29;20464;-81
2022/07/30 09:18:32;;;;;;;11.57;2.63;;;20.30;99.90;;;;;;4824716;29;20046;-81
2022/07/30 09:20:59;;;;;;;11.32;2.88;;;20.30;99.90;;;;;;4844625;29;20058;-80
2022/07/30 09:23:25;;;;;;;7.10;2.80;;;20.40;99.90;;;;;;4828315;29;20047;-81
2022/07/30 09:25:51;;;;;;;9.98;2.65;;;20.40;99.90;;;;;;4826495;29;20069;-81
2022/07/30 09:28:28;;;;;;;12.68;2.90;;;20.40;99.90;;;;;;4840798;29;20050;-82
2022/07/30 09:30:55;;;;;;;7.85;3.15;;;20.50;99.90;;;;;;4845095;29;20443;-81
2022/07/30 09:33:38;;;;;;;9.70;2.60;;;20.50;99.90;;;;;;4844192;29;20136;-80
2022/07/30 09:36:06;;;;;;;9.85;2.67;;;20.60;99.90;;;;;;4844042;29;20127;-82
2022/07/30 09:38:50;;;;;;;5.03;2.22;;;20.60;99.90;;;;;;4828387;29;20050;-81
2022/07/30 09:41:18;;;;;;;7.85;2.33;;;20.70;99.90;;;;;;4826456;29;20502;-81
2022/07/30 09:43:47;;;;;;;8.60;2.65;;;20.70;99.90;;;;;;4844179;29;20124;-81
2022/07/30 09:46:13;;;;;;;4.68;2.42;;;20.80;99.90;;;;;;4839006;29;20043;-80
2022/07/30 09:48:39;;;;;;;9.77;2.50;;;20.90;99.90;;;;;;4826784;29;20110;-80
2022/07/30 09:51:05;;;;;;;11.60;3.10;;;20.90;99.90;;;;;;4831161;29;20050;-80
2022/07/30 09:53:31;;;;;;;8.98;2.58;;;21.00;99.90;;;;;;4845702;29;20054;-81
2022/07/30 09:55:58;;;;;;;10.25;2.30;;;21.00;99.90;;;;;;4843267;29;20058;-81
2022/07/30 09:58:36;;;;;;;5.18;1.98;;;20.90;99.90;;;;;;4844377;29;20486;-80
2022/07/30 10:01:02;;;;;;;3.92;1.90;;;20.90;99.90;;;;;;4845171;29;20070;-81
2022/07/30 10:03:28;;;;;;;7.13;2.17;;;21.00;99.90;;;;;;4828280;29;20082;-81
2022/07/30 10:05:57;;;;;;;6.22;2.72;;;21.00;99.90;;;;;;4843282;29;20083;-80
2022/07/30 10:08:40;;;;;;;6.72;2.38;;;21.00;99.90;;;;;;4845667;29;20380;-81
2022/07/30 10:11:08;;;;;;;13.57;2.50;;;21.10;99.90;;;;;;4827177;29;20077;-81
2022/07/30 10:13:35;;;;;;;6.50;2.40;;;21.10;99.90;;;;;;4844274;29;20054;-82
2022/07/30 10:16:02;;;;;;;7.70;2.15;;;21.10;99.90;;;;;;4842816;29;20450;-81
2022/07/30 10:18:29;;;;;;;4.53;2.28;;;21.20;99.90;;;;;;4832399;29;20042;-82
2022/07/30 10:20:55;;;;;;;7.78;1.98;;;21.20;99.90;;;;;;4844535;29;20054;-81
2022/07/30 10:23:23;;;;;;;5.20;2.10;;;21.30;99.90;;;;;;4845439;29;20054;-81
2022/07/30 10:25:49;;;;;;;3.28;1.80;;;21.30;99.90;;;;;;4828399;29;20110;-82
2022/07/30 10:28:16;;;;;;;5.00;2.05;;;21.40;99.90;;;;;;4842458;29;20145;-80
2022/07/30 10:30:44;;;;;;;4.78;1.45;;;21.40;99.90;;;;;;4844226;29;20132;-80
2022/07/30 10:33:11;;;;;;;6.28;2.28;;;21.30;99.90;;;;;;4840034;29;20120;-82
2022/07/30 10:35:36;;;;;;;7.35;1.90;;;21.30;99.90;;;;;;4837481;29;20049;-81
2022/07/30 10:38:03;;;;;;;7.78;1.90;;;21.40;99.90;;;;;;4844271;29;20054;-82
2022/07/30 10:40:36;;;;;;;7.45;1.75;;;21.50;99.90;;;;;;4852691;29;20431;-81
2022/07/30 10:43:30;;;;;;;5.10;1.70;;;21.70;99.90;;;;;;4840363;29;20490;-83
2022/07/30 10:46:01;;;;;;;6.10;2.30;;;21.80;99.90;;;;;;4841700;29;20045;-83
2022/07/30 10:48:33;;;;;;;9.20;2.40;;;21.80;99.90;;;;;;4843631;29;20509;-80
2022/07/30 10:50:59;;;;;;;7.53;2.60;;;21.70;99.90;;;;;;4842948;29;20508;-80
